Time;durP1;ratioP1;P1;durP2;ratioP2;P2;SDS_P1;SDS_P2;PMS_P1;PMS_P2;Temp;Humidity;BMP_temperature;BMP_pressure;BME280_temperature;BME280_humidity;BME280_pressure;Samples;Min_cycle;Max_cycle;Signal;HPM_P1;HPM_P2
2023/01/20 00:01:22;;;;;;;6.07;4.88;;;0.60;99.90;;;;;;5061281;28;20499;-64
2023/01/20 00:03:49;;;;;;;6.05;5.28;;;0.70;99.90;;;;;;5058164;28;20489;-64
2023/01/20 00:06:15;;;;;;;7.80;5.20;;;0.70;99.90;;;;;;5053013;28;20119;-66
2023/01/20 00:08:40;;;;;;;7.00;4.53;;;0.70;99.90;;;;;;5056713;28;20123;-64
2023/01/20 00:11:11;;;;;;;6.45;5.38;;;0.70;99.90;;;;;;5050655;28;20051;-64
2023/01/20 00:13:38;;;;;;;9.35;6.00;;;0.70;99.90;;;;;;5066319;28;20049;-64
2023/01/20 00:16:06;;;;;;;7.95;5.88;;;0.70;99.90;;;;;;5066782;28;20046;-63
2023/01/20 00:18:33;;;;;;;8.68;6.30;;;0.70;99.90;;;;;;5064512;28;20037;-64
2023/01/20 00:21:11;;;;;;;10.40;7.03;;;0.80;99.90;;;;;;5070332;28;20094;-64
2023/01/20 00:23:37;;;;;;;9.75;7.05;;;0.70;99.90;;;;;;5069703;28;20044;-64
2023/01/20 00:26:12;;;;;;;10.55;7.18;;;0.80;99.90;;;;;;5069581;28;20101;-63
2023/01/20 00:28:38;;;;;;;12.48;7.18;;;0.80;99.90;;;;;;5064769;28;20567;-65
2023/01/20 00:31:14;;;;;;;9.20;7.25;;;0.80;99.90;;;;;;5064801;28;20087;-66
2023/01/20 00:33:41;;;;;;;8.85;6.88;;;0.80;99.90;;;;;;5062424;28;20036;-61
2023/01/20 00:36:07;;;;;;;10.23;6.78;;;0.80;99.90;;;;;;5062526;28;20114;-66
2023/01/20 00:38:33;;;;;;;9.15;6.93;;;0.90;99.90;;;;;;5059801;28;20044;-63
2023/01/20 00:40:59;;;;;;;10.18;6.88;;;0.90;99.90;;;;;;5068254;28;20372;-64
2023/01/20 00:43:25;;;;;;;10.25;6.97;;;0.90;99.90;;;;;;5067587;28;20051;-65
2023/01/20 00:45:50;;;;;;;10.65;6.88;;;0.90;99.90;;;;;;5065813;28;20521;-64
2023/01/20 00:48:16;;;;;;;6.97;6.28;;;0.90;99.90;;;;;;5060386;28;20101;-63
2023/01/20 00:50:42;;;;;;;7.63;6.72;;;0.90;99.90;;;;;;5059191;28;20043;-65
2023/01/20 00:53:07;;;;;;;9.57;6.82;;;0.80;99.90;;;;;;5060089;28;20041;-64
2023/01/20 00:55:33;;;;;;;9.18;6.70;;;0.80;99.90;;;;;;5060395;28;20212;-64
2023/01/20 00:57:59;;;;;;;8.80;6.88;;;0.80;99.90;;;;;;5059198;28;20131;-64
2023/01/20 01:00:24;;;;;;;7.82;6.78;;;0.80;99.90;;;;;;5066227;28;20059;-66
2023/01/20 01:02:50;;;;;;;9.40;7.03;;;0.80;99.90;;;;;;5060246;28;20387;-64
2023/01/20 01:05:16;;;;;;;8.30;6.72;;;0.80;99.90;;;;;;5065242;28;20068;-64
2023/01/20 01:07:42;;;;;;;8.85;6.72;;;0.80;99.90;;;;;;5067974;28;20044;-65
2023/01/20 01:10:09;;;;;;;8.60;7.18;;;0.80;99.90;;;;;;5067706;28;20384;-65
2023/01/20 01:12:35;;;;;;;9.77;7.20;;;0.80;99.90;;;;;;5064448;28;20051;-65
2023/01/20 01:15:01;;;;;;;11.23;7.53;;;0.80;99.90;;;;;;5064698;28;20049;-65
2023/01/20 01:17:45;;;;;;;10.27;7.65;;;0.80;99.90;;;;;;5032507;28;20056;-66
2023/01/20 01:20:12;;;;;;;10.85;8.05;;;0.70;99.90;;;;;;5020834;28;21120;-64
2023/01/20 01:22:38;;;;;;;12.35;8.25;;;0.80;99.90;;;;;;5025847;28;20061;-64
2023/01/20 01:25:04;;;;;;;12.30;8.38;;;0.70;99.90;;;;;;5030772;28;20404;-63
2023/01/20 01:27:30;;;;;;;14.68;9.23;;;0.70;99.90;;;;;;5036534;28;20518;-62
2023/01/20 01:29:56;;;;;;;11.27;8.88;;;0.60;99.90;;;;;;5026338;28;20059;-65
2023/01/20 01:32:22;;;;;;;15.00;10.02;;;0.60;99.90;;;;;;5037982;28;20174;-63
2023/01/20 01:34:47;;;;;;;12.32;9.10;;;0.60;99.90;;;;;;5040528;28;20049;-65
2023/01/20 01:37:13;;;;;;;17.08;9.85;;;0.60;99.90;;;;;;5026184;28;20040;-65
2023/01/20 01:39:39;;;;;;;13.40;10.30;;;0.60;99.90;;;;;;5030768;28;20049;-65
2023/01/20 01:42:24;;;;;;;16.13;10.25;;;0.60;99.90;;;;;;5030113;28;20526;-64
2023/01/20 01:45:19;;;;;;;18.00;12.43;;;0.60;99.90;;;;;;5025427;28;20426;-63
2023/01/20 01:48:06;;;;;;;18.08;12.30;;;0.50;99.90;;;;;;5016958;28;20131;-64
2023/01/20 01:50:40;;;;;;;17.58;11.65;;;0.50;99.90;;;;;;5030993;28;20469;-65
2023/01/20 01:53:08;;;;;;;18.55;11.65;;;0.40;99.90;;;;;;5026620;28;20037;-64
2023/01/20 01:55:38;;;;;;;18.98;13.23;;;0.50;99.90;;;;;;5053601;28;20051;-64
2023/01/20 01:58:06;;;;;;;16.63;12.48;;;0.40;99.90;;;;;;5068503;28;20479;-65
2023/01/20 02:00:31;;;;;;;17.98;13.27;;;0.40;99.90;;;;;;5061736;28;20044;-64
2023/01/20 02:02:58;;;;;;;17.80;12.07;;;0.40;99.90;;;;;;5065545;28;20059;-66
2023/01/20 02:05:25;;;;;;;19.17;12.57;;;0.50;99.90;;;;;;5067501;28;20037;-63
2023/01/20 02:07:52;;;;;;;19.35;12.00;;;0.50;99.90;;;;;;5063644;28;20040;-64
2023/01/20 02:10:18;;;;;;;18.88;12.10;;;0.50;99.90;;;;;;5061681;28;20041;-64
2023/01/20 02:12:48;;;;;;;19.13;12.60;;;0.50;99.90;;;;;;5066952;28;20445;-63
2023/01/20 02:15:14;;;;;;;18.95;13.02;;;0.50;99.90;;;;;;5063865;28;20060;-64
2023/01/20 02:18:07;;;;;;;19.85;13.18;;;0.50;99.90;;;;;;5067377;28;20049;-64
2023/01/20 02:20:44;;;;;;;20.37;13.00;;;0.50;99.90;;;;;;5062639;28;20047;-64
2023/01/20 02:24:00;;;;;;;20.10;12.18;;;0.50;99.90;;;;;;5067844;28;20379;-65
2023/01/20 02:26:44;;;;;;;19.33;12.85;;;0.50;99.90;;;;;;4991320;28;20084;-65
2023/01/20 02:29:39;;;;;;;19.42;13.07;;;0.50;99.90;;;;;;5010961;28;20628;-65
2023/01/20 02:32:20;;;;;;;19.50;13.02;;;0.50;99.90;;;;;;5010068;28;20060;-65
2023/01/20 02:35:12;;;;;;;20.75;13.23;;;0.60;99.90;;;;;;5006478;28;20566;-64
2023/01/20 02:37:50;;;;;;;20.70;12.95;;;0.60;99.90;;;;;;5005642;28;20141;-63
2023/01/20 02:40:27;;;;;;;19.90;13.63;;;0.60;99.90;;;;;;5008445;28;20048;-65
2023/01/20 02:43:01;;;;;;;21.02;13.60;;;0.60;99.90;;;;;;5011705;28;20041;-63
2023/01/20 02:45:32;;;;;;;19.02;12.65;;;0.60;99.90;;;;;;5009703;28;20043;-66
2023/01/20 02:48:21;;;;;;;20.92;12.30;;;0.50;99.90;;;;;;5006547;28;20058;-64
2023/01/20 02:51:20;;;;;;;20.73;12.80;;;0.50;99.90;;;;;;5009305;28;20540;-64
2023/01/20 02:53:51;;;;;;;18.73;12.95;;;0.50;99.90;;;;;;5001368;28;20049;-65
2023/01/20 02:56:20;;;;;;;17.83;12.50;;;0.50;99.90;;;;;;5013187;28;20054;-66
2023/01/20 02:58:53;;;;;;;20.77;13.50;;;0.50;99.90;;;;;;5003545;28;20079;-63
2023/01/20 03:01:28;;;;;;;20.40;13.70;;;0.50;99.90;;;;;;5024580;28;20491;-67
2023/01/20 03:03:58;;;;;;;21.48;12.95;;;0.50;99.90;;;;;;5067136;28;20040;-63
2023/01/20 03:06:27;;;;;;;22.55;13.80;;;0.40;99.90;;;;;;5068249;28;20058;-63
2023/01/20 03:08:57;;;;;;;21.48;13.48;;;0.40;99.90;;;;;;5061564;28;20493;-65
2023/01/20 03:11:22;;;;;;;23.58;13.65;;;0.40;99.90;;;;;;5067681;28;20072;-65
2023/01/20 03:13:56;;;;;;;21.65;13.27;;;0.50;99.90;;;;;;5050041;28;20045;-62
2023/01/20 03:16:25;;;;;;;22.85;13.15;;;0.50;99.90;;;;;;5068045;28;20044;-66
2023/01/20 03:18:51;;;;;;;20.90;12.55;;;0.50;99.90;;;;;;5064783;28;20042;-63
2023/01/20 03:21:17;;;;;;;20.80;12.27;;;0.50;99.90;;;;;;5066151;28;20036;-65
2023/01/20 03:23:46;;;;;;;21.15;12.10;;;0.50;99.90;;;;;;5065022;28;20419;-66
2023/01/20 03:26:14;;;;;;;21.77;12.27;;;0.50;99.90;;;;;;5065472;28;20040;-65
2023/01/20 03:28:43;;;;;;;19.73;12.25;;;0.50;99.90;;;;;;5066936;28;20049;-64
2023/01/20 03:31:23;;;;;;;18.55;12.30;;;0.50;99.90;;;;;;5077482;28;20076;-63
2023/01/20 03:33:52;;;;;;;21.27;12.95;;;0.50;99.90;;;;;;5062778;28;20048;-66
2023/01/20 03:36:21;;;;;;;18.27;11.85;;;0.50;99.90;;;;;;5071759;28;21843;-65
2023/01/20 03:38:48;;;;;;;21.85;12.80;;;0.50;99.90;;;;;;5061411;28;20115;-64
2023/01/20 03:41:28;;;;;;;18.77;11.73;;;0.50;99.90;;;;;;5059839;28;20052;-63
2023/01/20 03:44:13;;;;;;;19.88;12.27;;;0.50;99.90;;;;;;5062045;28;20051;-65
2023/01/20 03:47:00;;;;;;;18.83;11.65;;;0.50;99.90;;;;;;5060731;28;20045;-62
2023/01/20 03:49:39;;;;;;;21.30;12.60;;;0.50;99.90;;;;;;5061673;28;20469;-64
2023/01/20 03:52:17;;;;;;;20.00;12.10;;;0.50;99.90;;;;;;5066683;28;20055;-68
2023/01/20 03:55:21;;;;;;;20.48;12.75;;;0.50;99.90;;;;;;5064025;28;20121;-64
2023/01/20 03:58:02;;;;;;;20.92;12.98;;;0.50;99.90;;;;;;5059799;28;20522;-64
2023/01/20 04:00:32;;;;;;;19.65;12.70;;;0.50;99.90;;;;;;5064942;28;20517;-64
2023/01/20 04:03:00;;;;;;;22.30;13.32;;;0.60;99.90;;;;;;5063400;28;20052;-64
2023/01/20 04:05:27;;;;;;;21.05;13.52;;;0.60;99.90;;;;;;5065953;28;20050;-65
2023/01/20 04:07:56;;;;;;;20.77;12.93;;;0.60;99.90;;;;;;5061746;28;20032;-63
2023/01/20 04:10:22;;;;;;;20.80;13.80;;;0.60;99.90;;;;;;5065932;28;20036;-64
2023/01/20 04:12:48;;;;;;;22.88;14.05;;;0.60;99.90;;;;;;5062035;28;20040;-65
2023/01/20 04:15:15;;;;;;;20.65;13.50;;;0.60;99.90;;;;;;5061321;28;20063;-63
2023/01/20 04:17:41;;;;;;;20.48;12.93;;;0.60;99.90;;;;;;5042919;28;20101;-65
2023/01/20 04:20:12;;;;;;;23.50;14.52;;;0.60;99.90;;;;;;5068533;28;20483;-63
2023/01/20 04:22:49;;;;;;;23.27;14.27;;;0.60;99.90;;;;;;5067854;28;20036;-65
2023/01/20 04:25:27;;;;;;;22.38;14.50;;;0.60;99.90;;;;;;5066306;28;20390;-65
2023/01/20 04:27:53;;;;;;;23.92;14.43;;;0.60;99.90;;;;;;5060383;28;20047;-64
2023/01/20 04:30:18;;;;;;;21.35;13.57;;;0.60;99.90;;;;;;5062234;28;20040;-63
2023/01/20 04:32:44;;;;;;;23.10;14.10;;;0.60;99.90;;;;;;5063118;28;20055;-66
2023/01/20 04:35:15;;;;;;;23.00;14.32;;;0.70;99.90;;;;;;5062458;28;20118;-62
2023/01/20 04:37:41;;;;;;;22.00;13.80;;;0.60;99.90;;;;;;5075553;28;20045;-63
2023/01/20 04:40:08;;;;;;;24.45;14.52;;;0.60;99.90;;;;;;5060969;28;20037;-64
2023/01/20 04:42:34;;;;;;;24.05;15.07;;;0.70;99.90;;;;;;5067465;28;20041;-66
2023/01/20 04:45:00;;;;;;;22.88;14.40;;;0.70;99.90;;;;;;5070534;28;20459;-64
2023/01/20 04:47:30;;;;;;;26.20;14.85;;;0.60;99.90;;;;;;5066310;28;20456;-66
2023/01/20 04:49:55;;;;;;;24.58;15.23;;;0.60;99.90;;;;;;5068438;28;20783;-64
2023/01/20 04:52:21;;;;;;;22.35;14.32;;;0.60;99.90;;;;;;5067943;28;20049;-62
2023/01/20 04:54:46;;;;;;;24.52;14.32;;;0.70;99.90;;;;;;5065076;28;20040;-67
2023/01/20 04:57:12;;;;;;;25.15;15.23;;;0.70;99.90;;;;;;5067695;28;20036;-65
2023/01/20 04:59:38;;;;;;;24.60;15.50;;;0.70;99.90;;;;;;5061906;28;20043;-66
2023/01/20 05:02:03;;;;;;;23.52;15.30;;;0.70;99.90;;;;;;5068435;28;20115;-66
2023/01/20 05:04:29;;;;;;;25.85;15.65;;;0.70;99.90;;;;;;5059311;28;20055;-64
2023/01/20 05:06:55;;;;;;;24.77;16.55;;;0.70;99.90;;;;;;5062318;28;20047;-64
2023/01/20 05:09:20;;;;;;;24.25;15.40;;;0.70;99.90;;;;;;5067914;28;20493;-64
2023/01/20 05:11:46;;;;;;;26.65;16.00;;;0.70;99.90;;;;;;5066305;28;20064;-65
2023/01/20 05:14:12;;;;;;;26.85;16.45;;;0.70;99.90;;;;;;5062772;28;20099;-65
2023/01/20 05:16:38;;;;;;;27.23;16.52;;;0.70;99.90;;;;;;5061657;28;20052;-65
2023/01/20 05:19:03;;;;;;;28.60;16.55;;;0.70;99.90;;;;;;5063212;28;21008;-64
2023/01/20 05:21:29;;;;;;;24.55;15.02;;;0.70;99.90;;;;;;5065359;28;20163;-66
2023/01/20 05:23:56;;;;;;;26.95;16.23;;;0.70;99.90;;;;;;5070899;28;20107;-65
2023/01/20 05:26:22;;;;;;;26.48;16.23;;;0.70;99.90;;;;;;5062417;28;20040;-65
2023/01/20 05:28:48;;;;;;;27.73;15.70;;;0.70;99.90;;;;;;5062060;28;20472;-65
2023/01/20 05:31:14;;;;;;;26.60;15.60;;;0.70;99.90;;;;;;5063106;28;20048;-66
2023/01/20 05:33:40;;;;;;;29.48;16.50;;;0.70;99.90;;;;;;5071544;28;20535;-64
2023/01/20 05:36:06;;;;;;;28.13;16.23;;;0.70;99.90;;;;;;5061099;28;20033;-63
2023/01/20 05:38:32;;;;;;;30.67;16.77;;;0.70;99.90;;;;;;5048697;28;20044;-67
2023/01/20 05:40:59;;;;;;;27.88;15.88;;;0.70;99.90;;;;;;5068264;28;20123;-64
2023/01/20 05:43:25;;;;;;;26.33;15.80;;;0.70;99.90;;;;;;5072195;28;20502;-66
2023/01/20 05:45:50;;;;;;;28.00;17.65;;;0.70;99.90;;;;;;5067882;28;20040;-65
2023/01/20 05:48:16;;;;;;;27.77;15.93;;;0.70;99.90;;;;;;5049144;28;20105;-67
2023/01/20 05:50:42;;;;;;;26.73;15.80;;;0.80;99.90;;;;;;5066858;28;20076;-63
2023/01/20 05:53:07;;;;;;;32.50;16.92;;;0.80;99.90;;;;;;5067609;28;20123;-63
2023/01/20 05:55:33;;;;;;;29.40;17.05;;;0.80;99.90;;;;;;5071580;28;20033;-66
2023/01/20 05:58:03;;;;;;;33.47;17.80;;;0.80;99.90;;;;;;5066142;28;20048;-64
2023/01/20 06:00:30;;;;;;;31.20;18.50;;;0.90;99.90;;;;;;5071120;28;20123;-66
2023/01/20 06:02:56;;;;;;;30.00;18.25;;;0.90;99.90;;;;;;5066219;28;20052;-63
2023/01/20 06:05:22;;;;;;;32.50;19.13;;;0.90;99.90;;;;;;5070449;28;20514;-65
2023/01/20 06:07:48;;;;;;;27.92;17.70;;;0.90;99.90;;;;;;5061831;28;20128;-65
2023/01/20 06:10:15;;;;;;;31.67;19.27;;;0.90;99.90;;;;;;5070163;28;20131;-65
2023/01/20 06:12:41;;;;;;;31.88;18.00;;;0.90;99.90;;;;;;5068454;28;20063;-68
2023/01/20 06:15:07;;;;;;;31.67;19.00;;;0.90;99.90;;;;;;5071187;28;20052;-65
2023/01/20 06:17:33;;;;;;;33.45;18.75;;;0.90;99.90;;;;;;5065603;28;20036;-66
2023/01/20 06:19:59;;;;;;;31.50;18.75;;;0.90;99.90;;;;;;5071270;28;20094;-64
2023/01/20 06:22:25;;;;;;;30.45;19.15;;;0.90;99.90;;;;;;5067654;28;20445;-64
2023/01/20 06:24:51;;;;;;;32.80;18.63;;;0.90;99.90;;;;;;5068638;28;20047;-64
2023/01/20 06:27:17;;;;;;;31.80;18.90;;;1.00;99.90;;;;;;5067645;28;20044;-64
2023/01/20 06:29:43;;;;;;;32.80;19.27;;;1.00;99.90;;;;;;5053609;28;20051;-65
2023/01/20 06:32:09;;;;;;;30.88;20.27;;;1.00;99.90;;;;;;5069303;28;20479;-65
2023/01/20 06:34:35;;;;;;;33.22;19.88;;;1.00;99.90;;;;;;5064617;28;20068;-65
2023/01/20 06:37:01;;;;;;;31.30;19.83;;;1.00;99.90;;;;;;5052138;28;20044;-62
2023/01/20 06:39:27;;;;;;;33.08;18.85;;;0.90;99.90;;;;;;5064268;28;20056;-64
2023/01/20 06:41:56;;;;;;;32.88;19.98;;;1.00;99.90;;;;;;5070889;28;20041;-62
2023/01/20 06:44:22;;;;;;;36.30;20.65;;;1.00;99.90;;;;;;5066219;28;20036;-64
2023/01/20 06:46:47;;;;;;;35.28;20.55;;;1.00;99.90;;;;;;5066445;28;20055;-65
2023/01/20 06:49:13;;;;;;;32.25;19.52;;;1.00;99.90;;;;;;5058960;28;20045;-66
2023/01/20 06:51:40;;;;;;;34.88;20.08;;;1.00;99.90;;;;;;5064497;28;20407;-66
2023/01/20 06:54:06;;;;;;;38.17;20.95;;;1.00;99.90;;;;;;5068207;28;20048;-66
2023/01/20 06:56:31;;;;;;;34.97;20.13;;;1.00;99.90;;;;;;5068906;28;20037;-67
2023/01/20 06:58:57;;;;;;;32.55;19.42;;;1.00;99.90;;;;;;5067550;28;20091;-66
2023/01/20 07:01:30;;;;;;;35.60;21.40;;;1.00;99.90;;;;;;5067121;28;20403;-63
2023/01/20 07:03:56;;;;;;;33.72;20.33;;;1.00;99.90;;;;;;5066733;28;20040;-65
2023/01/20 07:06:32;;;;;;;33.78;20.27;;;1.00;99.90;;;;;;5065549;28;20505;-66
2023/01/20 07:08:59;;;;;;;36.95;21.63;;;1.00;99.90;;;;;;5070061;28;20479;-66
2023/01/20 07:11:27;;;;;;;35.80;21.50;;;1.00;99.90;;;;;;5064507;28;20035;-66
2023/01/20 07:13:53;;;;;;;38.10;21.23;;;1.00;99.90;;;;;;5066954;28;20118;-65
2023/01/20 07:16:19;;;;;;;37.42;21.75;;;1.00;99.90;;;;;;5068952;28;20037;-63
2023/01/20 07:18:49;;;;;;;35.65;20.35;;;1.00;99.90;;;;;;5066197;28;21423;-69
2023/01/20 07:21:16;;;;;;;35.97;20.67;;;1.00;99.90;;;;;;5067289;28;20529;-63
2023/01/20 07:23:41;;;;;;;38.85;21.40;;;1.00;99.90;;;;;;5065083;28;20502;-64
2023/01/20 07:26:13;;;;;;;38.05;21.25;;;1.00;99.90;;;;;;5069665;28;20037;-65
2023/01/20 07:28:39;;;;;;;36.33;22.42;;;1.10;99.90;;;;;;5063078;28;20518;-64
2023/01/20 07:31:07;;;;;;;35.33;21.55;;;1.00;99.90;;;;;;5069860;28;20043;-63
2023/01/20 07:33:33;;;;;;;35.70;20.92;;;1.00;99.90;;;;;;5064841;28;20045;-63
2023/01/20 07:36:00;;;;;;;38.92;21.70;;;1.00;99.90;;;;;;5066983;28;20041;-63
2023/01/20 07:38:25;;;;;;;41.78;22.35;;;1.10;99.90;;;;;;5069497;28;20048;-64
2023/01/20 07:40:51;;;;;;;40.50;22.83;;;1.00;99.90;;;;;;5063693;28;20044;-62
2023/01/20 07:43:16;;;;;;;36.88;20.60;;;1.10;99.90;;;;;;5069065;28;21238;-65
2023/01/20 07:45:42;;;;;;;40.97;21.63;;;1.10;99.90;;;;;;5068467;28;20511;-64
2023/01/20 07:48:08;;;;;;;40.72;22.27;;;1.10;99.90;;;;;;5068866;28;20044;-66
2023/01/20 07:50:35;;;;;;;39.10;21.65;;;1.10;99.90;;;;;;5064595;28;20107;-63
2023/01/20 07:53:01;;;;;;;41.35;22.20;;;1.00;99.90;;;;;;5053003;28;20134;-63
2023/01/20 07:55:26;;;;;;;43.38;22.55;;;1.10;99.90;;;;;;5068648;28;20044;-67
2023/01/20 07:57:52;;;;;;;41.70;22.77;;;1.00;99.90;;;;;;5052705;28;20098;-66
2023/01/20 08:00:18;;;;;;;43.30;21.67;;;1.10;99.90;;;;;;5069241;28;20045;-66
2023/01/20 08:02:44;;;;;;;45.13;23.50;;;1.10;99.90;;;;;;5069458;28;20044;-65
2023/01/20 08:05:10;;;;;;;40.92;21.45;;;1.10;99.90;;;;;;5070061;28;20481;-63
2023/01/20 08:07:35;;;;;;;42.67;22.63;;;1.10;99.90;;;;;;5069393;28;20044;-65
2023/01/20 08:10:01;;;;;;;43.72;22.67;;;1.10;99.90;;;;;;5069098;28;20473;-64
2023/01/20 08:12:28;;;;;;;44.28;21.75;;;1.10;99.90;;;;;;5068964;28;20045;-66
2023/01/20 08:14:54;;;;;;;46.08;23.15;;;1.10;99.90;;;;;;5069216;28;20053;-63
2023/01/20 08:17:19;;;;;;;47.25;24.25;;;1.10;99.90;;;;;;5069842;28;20453;-65
2023/01/20 08:19:45;;;;;;;42.95;22.80;;;1.10;99.90;;;;;;5068728;28;20044;-64
2023/01/20 08:22:11;;;;;;;45.50;23.00;;;1.10;99.90;;;;;;5068676;28;20105;-64
2023/01/20 08:24:36;;;;;;;46.88;23.13;;;1.20;99.90;;;;;;5068316;28;20043;-65
2023/01/20 08:27:02;;;;;;;43.53;23.42;;;1.20;99.90;;;;;;5067633;28;20044;-66
2023/01/20 08:29:30;;;;;;;49.42;23.52;;;1.30;99.90;;;;;;5068935;28;20047;-65
2023/01/20 08:31:58;;;;;;;43.42;21.85;;;1.30;99.90;;;;;;5068570;28;20480;-66
2023/01/20 08:34:24;;;;;;;43.95;21.63;;;1.30;99.90;;;;;;5068241;28;20120;-67
2023/01/20 08:36:52;;;;;;;42.25;21.45;;;1.20;99.90;;;;;;5067154;28;20060;-65
2023/01/20 08:39:19;;;;;;;42.97;22.17;;;1.20;99.90;;;;;;5069293;28;20045;-66
2023/01/20 08:41:46;;;;;;;44.83;21.20;;;1.20;99.90;;;;;;5065437;28;20437;-64
2023/01/20 08:44:14;;;;;;;44.92;22.00;;;1.30;99.90;;;;;;5051864;28;20047;-66
2023/01/20 08:46:40;;;;;;;47.03;22.67;;;1.30;99.90;;;;;;5068303;28;20059;-65
2023/01/20 08:49:16;;;;;;;45.90;21.48;;;1.30;99.90;;;;;;5066229;28;20458;-64
2023/01/20 08:51:43;;;;;;;46.17;22.70;;;1.30;99.90;;;;;;5068422;28;20143;-65
2023/01/20 08:54:09;;;;;;;43.88;21.83;;;1.40;99.90;;;;;;5067682;28;20037;-65
2023/01/20 08:56:35;;;;;;;45.28;23.40;;;1.40;99.90;;;;;;5067756;28;20043;-65
2023/01/20 08:59:02;;;;;;;44.38;22.35;;;1.40;99.90;;;;;;5067048;28;20518;-63
2023/01/20 09:01:32;;;;;;;46.58;22.08;;;1.40;99.90;;;;;;5066755;28;20090;-66
2023/01/20 09:03:58;;;;;;;44.58;23.63;;;1.40;99.90;;;;;;5068247;28;20053;-65
2023/01/20 09:06:24;;;;;;;45.75;22.35;;;1.40;99.90;;;;;;5080331;28;20045;-63
2023/01/20 09:08:50;;;;;;;46.53;22.08;;;1.40;99.90;;;;;;5067687;28;20048;-65
2023/01/20 09:11:21;;;;;;;45.05;22.05;;;1.50;99.90;;;;;;5064858;28;20076;-64
2023/01/20 09:13:47;;;;;;;44.30;22.08;;;1.50;99.90;;;;;;5050298;28;20055;-64
2023/01/20 09:16:15;;;;;;;41.97;22.13;;;1.50;99.90;;;;;;5069474;28;20040;-64
2023/01/20 09:18:41;;;;;;;41.53;21.15;;;1.50;99.90;;;;;;5067956;28;20048;-65
2023/01/20 09:21:08;;;;;;;37.53;19.55;;;1.50;99.90;;;;;;5068062;28;20823;-65
2023/01/20 09:23:37;;;;;;;39.40;20.38;;;1.60;99.90;;;;;;5067657;28;20115;-66
2023/01/20 09:26:04;;;;;;;42.60;21.75;;;1.60;99.90;;;;;;5066700;28;20483;-65
2023/01/20 09:28:30;;;;;;;38.60;20.83;;;1.60;99.90;;;;;;5069544;28;20491;-65
2023/01/20 09:31:07;;;;;;;46.92;22.85;;;1.60;99.90;;;;;;5071147;28;20067;-66
2023/01/20 09:33:36;;;;;;;46.20;20.95;;;1.60;99.90;;;;;;5070770;28;20037;-65
2023/01/20 09:36:04;;;;;;;40.15;20.27;;;1.60;99.90;;;;;;5071322;28;20044;-64
2023/01/20 09:44:49;;;;;;;39.88;19.60;;;1.60;99.90;;;;;;5071378;28;20052;-64
2023/01/20 09:47:24;;;;;;;37.58;18.45;;;1.60;99.90;;;;;;5072974;28;20518;-63
2023/01/20 09:53:29;;;;;;;35.75;17.58;;;1.50;99.90;;;;;;5012733;28;20083;-66
2023/01/20 09:56:12;;;;;;;34.53;18.23;;;1.50;99.90;;;;;;5027771;28;20527;-65
2023/01/20 09:58:45;;;;;;;33.72;16.55;;;1.50;99.90;;;;;;5030094;28;20196;-63
2023/01/20 10:01:29;;;;;;;33.38;17.52;;;1.60;99.90;;;;;;5012980;28;20057;-66
2023/01/20 10:04:13;;;;;;;38.22;18.45;;;1.60;99.90;;;;;;5023681;28;20053;-66
2023/01/20 10:06:45;;;;;;;31.33;17.13;;;1.60;99.90;;;;;;5028010;28;20485;-66
2023/01/20 10:09:30;;;;;;;33.15;16.75;;;1.70;99.90;;;;;;5013051;28;20042;-62
2023/01/20 10:12:20;;;;;;;33.92;17.35;;;1.60;99.90;;;;;;5029905;28;20045;-62
2023/01/20 10:14:54;;;;;;;36.38;17.27;;;1.70;99.90;;;;;;5011553;28;21322;-66
2023/01/20 10:17:29;;;;;;;30.48;15.93;;;1.70;99.90;;;;;;5012874;28;20061;-65
2023/01/20 10:20:06;;;;;;;31.63;15.65;;;1.60;99.90;;;;;;5013046;28;20030;-65
2023/01/20 10:22:44;;;;;;;33.28;16.70;;;1.70;99.90;;;;;;5010878;28;20056;-64
2023/01/20 10:25:42;;;;;;;29.50;16.55;;;1.70;99.90;;;;;;5012874;28;20049;-65
2023/01/20 10:28:14;;;;;;;31.88;15.15;;;1.70;99.90;;;;;;5024627;28;20064;-64
2023/01/20 10:30:41;;;;;;;30.70;16.38;;;1.60;99.90;;;;;;5065486;28;20110;-63
2023/01/20 10:33:12;;;;;;;29.42;15.65;;;1.70;99.90;;;;;;5068419;28;20084;-65
2023/01/20 10:35:48;;;;;;;30.17;15.15;;;1.70;99.90;;;;;;5066757;28;20045;-66
2023/01/20 10:38:28;;;;;;;28.95;15.25;;;1.70;99.90;;;;;;5069544;28;20792;-67
2023/01/20 10:41:17;;;;;;;29.05;14.65;;;1.70;99.90;;;;;;5068533;28;20045;-63
2023/01/20 10:43:43;;;;;;;30.23;16.13;;;1.70;99.90;;;;;;5069788;28;20430;-67
2023/01/20 10:46:09;;;;;;;32.10;15.30;;;1.70;99.90;;;;;;5069890;28;20499;-65
2023/01/20 10:48:56;;;;;;;29.52;16.15;;;1.70;99.90;;;;;;5069597;28;20044;-64
2023/01/20 10:51:49;;;;;;;26.77;14.90;;;1.70;99.90;;;;;;5069700;28;20538;-67
2023/01/20 10:54:34;;;;;;;27.98;14.82;;;1.70;99.90;;;;;;5068433;28;20040;-64
2023/01/20 10:57:02;;;;;;;31.42;14.40;;;1.70;99.90;;;;;;5084858;28;20076;-66
2023/01/20 10:59:34;;;;;;;30.05;16.80;;;1.70;99.90;;;;;;5069563;28;20475;-64
2023/01/20 11:02:21;;;;;;;28.58;15.68;;;1.70;99.90;;;;;;5067095;28;20049;-63
2023/01/20 11:04:55;;;;;;;29.15;15.25;;;1.70;99.90;;;;;;5068995;28;20048;-65
2023/01/20 11:07:21;;;;;;;29.80;15.45;;;1.70;99.90;;;;;;5071173;28;20055;-65
2023/01/20 11:09:47;;;;;;;31.50;15.68;;;1.70;99.90;;;;;;5070598;28;20037;-65
2023/01/20 11:12:16;;;;;;;28.02;15.20;;;1.80;99.90;;;;;;5067917;28;20040;-64
2023/01/20 11:14:43;;;;;;;29.13;15.73;;;1.80;99.90;;;;;;5069591;28;20507;-63
2023/01/20 11:17:14;;;;;;;28.75;14.90;;;1.80;99.90;;;;;;5068123;28;20041;-66
2023/01/20 11:19:52;;;;;;;31.27;15.95;;;1.80;99.90;;;;;;5068252;28;20082;-65
2023/01/20 11:22:30;;;;;;;32.22;15.82;;;1.90;99.90;;;;;;5069703;28;20518;-64
2023/01/20 11:24:58;;;;;;;30.13;15.57;;;1.90;99.90;;;;;;5069018;28;20052;-65
2023/01/20 11:27:52;;;;;;;32.72;15.25;;;1.90;99.90;;;;;;5051402;28;20457;-66
2023/01/20 11:30:31;;;;;;;31.60;14.75;;;1.90;99.90;;;;;;5066365;28;20074;-65
2023/01/20 11:33:16;;;;;;;30.23;15.75;;;1.90;99.90;;;;;;5065370;28;20049;-65
2023/01/20 11:35:59;;;;;;;29.88;14.63;;;1.90;99.90;;;;;;5069553;28;20044;-63
2023/01/20 11:38:39;;;;;;;27.25;13.73;;;1.90;99.90;;;;;;5052354;28;20441;-63
2023/01/20 11:41:24;;;;;;;24.02;12.80;;;1.90;99.90;;;;;;5068478;28;20056;-64
2023/01/20 11:43:51;;;;;;;30.75;15.35;;;1.90;99.90;;;;;;5068465;28;20044;-67
2023/01/20 11:46:32;;;;;;;32.30;15.75;;;1.90;99.90;;;;;;5067594;28;20040;-64
2023/01/20 11:49:21;;;;;;;34.80;19.13;;;1.90;99.90;;;;;;5058890;28;20040;-65
2023/01/20 11:51:56;;;;;;;30.33;16.52;;;1.90;99.90;;;;;;5063876;28;20047;-65
2023/01/20 11:54:30;;;;;;;29.38;14.50;;;1.90;99.90;;;;;;5069415;28;20047;-63
2023/01/20 11:57:00;;;;;;;33.30;16.23;;;1.90;99.90;;;;;;5066724;28;20040;-67
2023/01/20 11:59:34;;;;;;;33.42;17.05;;;1.90;99.90;;;;;;5067848;28;20071;-64
2023/01/20 12:02:00;;;;;;;30.58;16.23;;;1.90;99.90;;;;;;5066695;28;20040;-64
2023/01/20 12:04:41;;;;;;;33.25;17.23;;;1.90;99.90;;;;;;5068118;28;20047;-68
2023/01/20 12:07:10;;;;;;;33.80;16.52;;;1.90;99.90;;;;;;5068151;28;20037;-67
2023/01/20 12:09:38;;;;;;;31.75;17.65;;;1.90;99.90;;;;;;5067942;28;20045;-62
2023/01/20 12:12:19;;;;;;;31.73;15.98;;;1.90;99.90;;;;;;5066480;28;20061;-65
2023/01/20 12:14:53;;;;;;;33.92;16.90;;;1.90;99.90;;;;;;5066863;28;20480;-64
2023/01/20 12:17:31;;;;;;;33.75;16.45;;;1.90;99.90;;;;;;5065646;28;20078;-66
2023/01/20 12:20:12;;;;;;;31.13;15.88;;;1.80;99.90;;;;;;5067182;28;20044;-66
2023/01/20 12:22:53;;;;;;;32.67;17.08;;;1.90;99.90;;;;;;5063507;28;20119;-66
2023/01/20 12:25:30;;;;;;;31.80;16.40;;;1.90;99.90;;;;;;5067692;28;20052;-64
2023/01/20 12:28:04;;;;;;;31.60;16.55;;;1.90;99.90;;;;;;5045995;28;20033;-65
2023/01/20 12:30:54;;;;;;;32.13;16.02;;;1.90;99.90;;;;;;5080396;28;20091;-64
2023/01/20 12:33:24;;;;;;;33.75;17.65;;;1.90;99.90;;;;;;5064100;28;20483;-62
2023/01/20 12:36:15;;;;;;;33.22;17.65;;;1.90;99.90;;;;;;5062314;28;20467;-66
2023/01/20 12:39:15;;;;;;;34.08;17.15;;;1.90;99.90;;;;;;5065942;28;20071;-66
2023/01/20 12:42:04;;;;;;;34.60;16.63;;;1.90;99.90;;;;;;5064752;28;20051;-64
2023/01/20 12:44:59;;;;;;;33.60;16.35;;;1.90;99.90;;;;;;5063290;28;20071;-64
2023/01/20 12:47:28;;;;;;;33.13;17.50;;;1.90;99.90;;;;;;5066426;28;20041;-65
2023/01/20 12:50:19;;;;;;;35.40;16.98;;;1.90;99.90;;;;;;5062548;28;20060;-65
2023/01/20 12:53:11;;;;;;;31.33;16.65;;;1.90;99.90;;;;;;5009925;28;20184;-64
2023/01/20 12:55:55;;;;;;;31.17;16.58;;;1.90;99.90;;;;;;5008963;28;20044;-63
2023/01/20 12:58:30;;;;;;;29.40;16.13;;;2.00;99.90;;;;;;5004212;28;20236;-65
2023/01/20 13:01:12;;;;;;;29.75;15.65;;;2.00;99.90;;;;;;5005339;28;20585;-66
2023/01/20 13:04:24;;;;;;;28.80;14.63;;;2.00;99.90;;;;;;5029745;28;20050;-64
2023/01/20 13:07:08;;;;;;;30.27;15.27;;;2.00;99.90;;;;;;4933342;29;20052;-64
2023/01/20 13:09:49;;;;;;;36.00;16.13;;;2.00;99.90;;;;;;4933081;29;20303;-63